sensor_id;sensor_type;location;lat;lon;timestamp;P1;durP1;ratioP1;P2;durP2;ratioP2
63312;SDS011;49442;45.640;13.812;2023-04-01T00:01:46;0.80;;;0.60;;
63312;SDS011;49442;45.640;13.812;2023-04-01T00:04:12;0.52;;;0.30;;
63312;SDS011;49442;45.640;13.812;2023-04-01T00:06:37;0.50;;;0.22;;
63312;SDS011;49442;45.640;13.812;2023-04-01T00:09:03;0.20;;;0.20;;
63312;SDS011;49442;45.640;13.812;2023-04-01T00:11:29;0.93;;;0.30;;
63312;SDS011;49442;45.640;13.812;2023-04-01T00:13:55;0.28;;;0.10;;
63312;SDS011;49442;45.640;13.812;2023-04-01T00:16:21;0.10;;;0.10;;
63312;SDS011;49442;45.640;13.812;2023-04-01T00:18:47;0.63;;;0.20;;
63312;SDS011;49442;45.640;13.812;2023-04-01T00:21:13;0.10;;;0.10;;
63312;SDS011;49442;45.640;13.812;2023-04-01T00:23:39;0.20;;;0.10;;
63312;SDS011;49442;45.640;13.812;2023-04-01T00:26:05;0.28;;;0.10;;
63312;SDS011;49442;45.640;13.812;2023-04-01T00:28:31;0.15;;;0.10;;
63312;SDS011;49442;45.640;13.812;2023-04-01T00:30:58;0.45;;;0.15;;
63312;SDS011;49442;45.640;13.812;2023-04-01T00:33:31;0.30;;;0.20;;
63312;SDS011;49442;45.640;13.812;2023-04-01T00:36:05;0.63;;;0.20;;
63312;SDS011;49442;45.640;13.812;2023-04-01T00:38:31;0.10;;;0.10;;
63312;SDS011;49442;45.640;13.812;2023-04-01T00:40:57;0.10;;;0.10;;
63312;SDS011;49442;45.640;13.812;2023-04-01T00:43:24;0.45;;;0.20;;
63312;SDS011;49442;45.640;13.812;2023-04-01T00:45:51;1.27;;;0.20;;
63312;SDS011;49442;45.640;13.812;2023-04-01T00:48:21;1.85;;;0.85;;
63312;SDS011;49442;45.640;13.812;2023-04-01T00:50:57;1.35;;;0.10;;
63312;SDS011;49442;45.640;13.812;2023-04-01T00:53:28;0.20;;;0.20;;
63312;SDS011;49442;45.640;13.812;2023-04-01T00:56:07;0.10;;;0.10;;
63312;SDS011;49442;45.640;13.812;2023-04-01T01:01:05;1.50;;;0.82;;
63312;SDS011;49442;45.640;13.812;2023-04-01T01:03:33;1.00;;;0.50;;
63312;SDS011;49442;45.640;13.812;2023-04-01T01:09:11;0.22;;;0.08;;
63312;SDS011;49442;45.640;13.812;2023-04-01T01:14:53;0.47;;;0.20;;
63312;SDS011;49442;45.640;13.812;2023-04-01T01:20:14;0.15;;;0.05;;
63312;SDS011;49442;45.640;13.812;2023-04-01T01:31:18;0.20;;;0.20;;
63312;SDS011;49442;45.640;13.812;2023-04-01T01:33:55;0.15;;;0.15;;
63312;SDS011;49442;45.640;13.812;2023-04-01T01:36:36;0.70;;;0.25;;
63312;SDS011;49442;45.640;13.812;2023-04-01T01:39:04;0.45;;;0.25;;
63312;SDS011;49442;45.640;13.812;2023-04-01T01:41:32;1.45;;;0.30;;
63312;SDS011;49442;45.640;13.812;2023-04-01T01:44:00;1.13;;;0.20;;
63312;SDS011;49442;45.640;13.812;2023-04-01T01:46:30;1.08;;;0.30;;
63312;SDS011;49442;45.640;13.812;2023-04-01T01:48:57;0.60;;;0.50;;
63312;SDS011;49442;45.640;13.812;2023-04-01T01:51:25;0.20;;;0.20;;
63312;SDS011;49442;45.640;13.812;2023-04-01T01:53:52;0.10;;;0.10;;
63312;SDS011;49442;45.640;13.812;2023-04-01T01:56:18;0.10;;;0.10;;
63312;SDS011;49442;45.640;13.812;2023-04-01T01:58:48;2.30;;;0.20;;
63312;SDS011;49442;45.640;13.812;2023-04-01T02:01:17;0.68;;;0.20;;
63312;SDS011;49442;45.640;13.812;2023-04-01T02:03:47;1.50;;;0.38;;
63312;SDS011;49442;45.640;13.812;2023-04-01T02:06:18;1.55;;;0.30;;
63312;SDS011;49442;45.640;13.812;2023-04-01T02:11:23;0.98;;;0.28;;
63312;SDS011;49442;45.640;13.812;2023-04-01T02:13:56;0.47;;;0.38;;
63312;SDS011;49442;45.640;13.812;2023-04-01T02:17:11;1.33;;;0.40;;
63312;SDS011;49442;45.640;13.812;2023-04-01T02:19:20;0.20;;;0.20;;
63312;SDS011;49442;45.640;13.812;2023-04-01T02:21:54;0.75;;;0.50;;
63312;SDS011;49442;45.640;13.812;2023-04-01T02:24:22;0.80;;;0.52;;
63312;SDS011;49442;45.640;13.812;2023-04-01T02:26:51;2.30;;;0.43;;
63312;SDS011;49442;45.640;13.812;2023-04-01T02:29:18;1.30;;;0.35;;
63312;SDS011;49442;45.640;13.812;2023-04-01T02:31:46;0.68;;;0.60;;
63312;SDS011;49442;45.640;13.812;2023-04-01T02:34:14;1.60;;;0.52;;
63312;SDS011;49442;45.640;13.812;2023-04-01T02:36:40;1.83;;;0.40;;
63312;SDS011;49442;45.640;13.812;2023-04-01T02:39:06;0.68;;;0.47;;
63312;SDS011;49442;45.640;13.812;2023-04-01T02:41:38;1.58;;;0.50;;
63312;SDS011;49442;45.640;13.812;2023-04-01T02:44:05;0.40;;;0.40;;
63312;SDS011;49442;45.640;13.812;2023-04-01T02:46:32;3.20;;;0.65;;
63312;SDS011;49442;45.640;13.812;2023-04-01T02:48:58;0.50;;;0.50;;
63312;SDS011;49442;45.640;13.812;2023-04-01T02:51:23;1.33;;;0.60;;
63312;SDS011;49442;45.640;13.812;2023-04-01T02:53:51;0.77;;;0.45;;
63312;SDS011;49442;45.640;13.812;2023-04-01T02:56:17;1.38;;;0.40;;
63312;SDS011;49442;45.640;13.812;2023-04-01T02:58:44;0.40;;;0.40;;
63312;SDS011;49442;45.640;13.812;2023-04-01T03:01:10;1.30;;;0.50;;
63312;SDS011;49442;45.640;13.812;2023-04-01T03:03:36;0.65;;;0.30;;
63312;SDS011;49442;45.640;13.812;2023-04-01T03:06:07;0.55;;;0.55;;
63312;SDS011;49442;45.640;13.812;2023-04-01T03:08:34;0.40;;;0.40;;
63312;SDS011;49442;45.640;13.812;2023-04-01T03:11:01;0.60;;;0.50;;
63312;SDS011;49442;45.640;13.812;2023-04-01T03:13:27;0.60;;;0.60;;
63312;SDS011;49442;45.640;13.812;2023-04-01T03:15:52;0.50;;;0.50;;
63312;SDS011;49442;45.640;13.812;2023-04-01T03:18:18;0.30;;;0.30;;
63312;SDS011;49442;45.640;13.812;2023-04-01T03:20:44;0.40;;;0.40;;
63312;SDS011;49442;45.640;13.812;2023-04-01T03:23:10;0.40;;;0.30;;
63312;SDS011;49442;45.640;13.812;2023-04-01T03:25:35;0.50;;;0.40;;
63312;SDS011;49442;45.640;13.812;2023-04-01T03:28:01;0.43;;;0.43;;
63312;SDS011;49442;45.640;13.812;2023-04-01T03:30:27;0.50;;;0.43;;
63312;SDS011;49442;45.640;13.812;2023-04-01T03:32:56;0.30;;;0.30;;
63312;SDS011;49442;45.640;13.812;2023-04-01T03:35:22;0.55;;;0.55;;
63312;SDS011;49442;45.640;13.812;2023-04-01T03:37:50;0.50;;;0.50;;
63312;SDS011;49442;45.640;13.812;2023-04-01T03:40:16;2.88;;;0.85;;
63312;SDS011;49442;45.640;13.812;2023-04-01T03:42:42;0.52;;;0.50;;
63312;SDS011;49442;45.640;13.812;2023-04-01T03:45:07;0.95;;;0.40;;
63312;SDS011;49442;45.640;13.812;2023-04-01T03:47:34;0.40;;;0.40;;
63312;SDS011;49442;45.640;13.812;2023-04-01T03:50:00;2.38;;;0.50;;
63312;SDS011;49442;45.640;13.812;2023-04-01T03:52:26;2.85;;;0.50;;
63312;SDS011;49442;45.640;13.812;2023-04-01T03:54:51;1.30;;;0.45;;
63312;SDS011;49442;45.640;13.812;2023-04-01T03:57:17;0.75;;;0.75;;
63312;SDS011;49442;45.640;13.812;2023-04-01T03:59:43;0.93;;;0.50;;
63312;SDS011;49442;45.640;13.812;2023-04-01T04:02:09;0.63;;;0.57;;
63312;SDS011;49442;45.640;13.812;2023-04-01T04:04:34;1.20;;;0.50;;
63312;SDS011;49442;45.640;13.812;2023-04-01T04:07:00;1.40;;;0.47;;
63312;SDS011;49442;45.640;13.812;2023-04-01T04:09:26;4.80;;;0.60;;
63312;SDS011;49442;45.640;13.812;2023-04-01T04:11:52;0.80;;;0.50;;
63312;SDS011;49442;45.640;13.812;2023-04-01T04:14:17;0.40;;;0.40;;
63312;SDS011;49442;45.640;13.812;2023-04-01T04:16:43;1.02;;;0.52;;
63312;SDS011;49442;45.640;13.812;2023-04-01T04:19:09;0.68;;;0.50;;
63312;SDS011;49442;45.640;13.812;2023-04-01T04:21:34;3.58;;;0.60;;
63312;SDS011;49442;45.640;13.812;2023-04-01T04:24:00;0.80;;;0.65;;
63312;SDS011;49442;45.640;13.812;2023-04-01T04:26:26;2.53;;;0.63;;
63312;SDS011;49442;45.640;13.812;2023-04-01T04:28:52;0.85;;;0.60;;
63312;SDS011;49442;45.640;13.812;2023-04-01T04:31:19;1.17;;;0.63;;
63312;SDS011;49442;45.640;13.812;2023-04-01T04:33:48;1.50;;;1.15;;
63312;SDS011;49442;45.640;13.812;2023-04-01T04:36:15;0.70;;;0.60;;
63312;SDS011;49442;45.640;13.812;2023-04-01T04:38:40;2.15;;;0.70;;
63312;SDS011;49442;45.640;13.812;2023-04-01T04:41:13;1.20;;;0.80;;
63312;SDS011;49442;45.640;13.812;2023-04-01T04:43:40;1.40;;;0.70;;
63312;SDS011;49442;45.640;13.812;2023-04-01T04:46:07;2.03;;;1.35;;
63312;SDS011;49442;45.640;13.812;2023-04-01T04:48:33;1.00;;;0.73;;
63312;SDS011;49442;45.640;13.812;2023-04-01T04:50:59;0.68;;;0.68;;
63312;SDS011;49442;45.640;13.812;2023-04-01T04:53:26;0.95;;;0.77;;
63312;SDS011;49442;45.640;13.812;2023-04-01T04:55:52;1.00;;;0.45;;
63312;SDS011;49442;45.640;13.812;2023-04-01T04:58:18;0.98;;;0.50;;
63312;SDS011;49442;45.640;13.812;2023-04-01T05:00:44;0.75;;;0.60;;
63312;SDS011;49442;45.640;13.812;2023-04-01T05:03:11;1.30;;;0.77;;
63312;SDS011;49442;45.640;13.812;2023-04-01T05:05:37;0.50;;;0.50;;
63312;SDS011;49442;45.640;13.812;2023-04-01T05:08:04;0.77;;;0.60;;
63312;SDS011;49442;45.640;13.812;2023-04-01T05:10:30;0.60;;;0.60;;
63312;SDS011;49442;45.640;13.812;2023-04-01T05:12:56;2.45;;;0.90;;
63312;SDS011;49442;45.640;13.812;2023-04-01T05:15:22;3.30;;;0.68;;
63312;SDS011;49442;45.640;13.812;2023-04-01T05:17:48;1.10;;;0.73;;
63312;SDS011;49442;45.640;13.812;2023-04-01T05:20:14;3.03;;;0.80;;
63312;SDS011;49442;45.640;13.812;2023-04-01T05:22:42;0.80;;;0.68;;
63312;SDS011;49442;45.640;13.812;2023-04-01T05:25:08;1.10;;;0.70;;
63312;SDS011;49442;45.640;13.812;2023-04-01T05:27:34;1.23;;;0.90;;
63312;SDS011;49442;45.640;13.812;2023-04-01T05:29:59;1.75;;;0.73;;
63312;SDS011;49442;45.640;13.812;2023-04-01T05:32:25;1.60;;;0.73;;
63312;SDS011;49442;45.640;13.812;2023-04-01T05:34:51;3.28;;;0.70;;
63312;SDS011;49442;45.640;13.812;2023-04-01T05:37:18;1.55;;;0.80;;
63312;SDS011;49442;45.640;13.812;2023-04-01T05:39:44;24.05;;;21.45;;
63312;SDS011;49442;45.640;13.812;2023-04-01T05:42:10;2.22;;;2.00;;
63312;SDS011;49442;45.640;13.812;2023-04-01T05:44:36;1.20;;;0.90;;
63312;SDS011;49442;45.640;13.812;2023-04-01T05:47:02;1.92;;;1.50;;
63312;SDS011;49442;45.640;13.812;2023-04-01T05:49:28;1.63;;;1.20;;
63312;SDS011;49442;45.640;13.812;2023-04-01T05:51:54;3.83;;;3.53;;
63312;SDS011;49442;45.640;13.812;2023-04-01T05:54:21;6.15;;;2.60;;
63312;SDS011;49442;45.640;13.812;2023-04-01T05:56:46;5.03;;;4.65;;
63312;SDS011;49442;45.640;13.812;2023-04-01T05:59:12;6.60;;;6.10;;
63312;SDS011;49442;45.640;13.812;2023-04-01T06:01:38;2.97;;;1.23;;
63312;SDS011;49442;45.640;13.812;2023-04-01T06:04:04;1.33;;;1.02;;
63312;SDS011;49442;45.640;13.812;2023-04-01T06:06:31;6.28;;;2.35;;
63312;SDS011;49442;45.640;13.812;2023-04-01T06:08:58;4.45;;;1.58;;
63312;SDS011;49442;45.640;13.812;2023-04-01T06:14:40;3.30;;;3.00;;
63312;SDS011;49442;45.640;13.812;2023-04-01T06:20:12;3.72;;;1.33;;
63312;SDS011;49442;45.640;13.812;2023-04-01T06:53:21;2.30;;;1.48;;
63312;SDS011;49442;45.640;13.812;2023-04-01T06:55:55;2.10;;;1.20;;
63312;SDS011;49442;45.640;13.812;2023-04-01T06:58:37;9.48;;;1.17;;
63312;SDS011;49442;45.640;13.812;2023-04-01T07:01:14;1.58;;;1.25;;
63312;SDS011;49442;45.640;13.812;2023-04-01T07:04:10;4.28;;;1.30;;
63312;SDS011;49442;45.640;13.812;2023-04-01T07:06:38;7.47;;;4.90;;
63312;SDS011;49442;45.640;13.812;2023-04-01T07:09:14;7.60;;;4.90;;
63312;SDS011;49442;45.640;13.812;2023-04-01T07:11:44;1.23;;;0.90;;
63312;SDS011;49442;45.640;13.812;2023-04-01T07:17:12;1.40;;;0.98;;
63312;SDS011;49442;45.640;13.812;2023-04-01T07:19:50;7.00;;;1.25;;
63312;SDS011;49442;45.640;13.812;2023-04-01T07:24:56;1.30;;;1.10;;
63312;SDS011;49442;45.640;13.812;2023-04-01T07:27:26;1.67;;;1.30;;
63312;SDS011;49442;45.640;13.812;2023-04-01T07:29:52;3.92;;;3.58;;
63312;SDS011;49442;45.640;13.812;2023-04-01T07:32:32;2.15;;;1.40;;
63312;SDS011;49442;45.640;13.812;2023-04-01T07:43:52;1.40;;;0.85;;
63312;SDS011;49442;45.640;13.812;2023-04-01T07:46:50;2.42;;;1.10;;
63312;SDS011;49442;45.640;13.812;2023-04-01T07:55:07;1.48;;;1.10;;
63312;SDS011;49442;45.640;13.812;2023-04-01T07:58:03;4.82;;;1.30;;
63312;SDS011;49442;45.640;13.812;2023-04-01T08:00:50;4.82;;;1.20;;
63312;SDS011;49442;45.640;13.812;2023-04-01T08:06:05;1.23;;;0.88;;
63312;SDS011;49442;45.640;13.812;2023-04-01T08:11:19;1.58;;;0.98;;
63312;SDS011;49442;45.640;13.812;2023-04-01T08:14:09;2.63;;;1.33;;
63312;SDS011;49442;45.640;13.812;2023-04-01T08:16:48;3.63;;;1.60;;
63312;SDS011;49442;45.640;13.812;2023-04-01T08:24:47;1.42;;;1.10;;
63312;SDS011;49442;45.640;13.812;2023-04-01T08:27:22;3.08;;;1.65;;
63312;SDS011;49442;45.640;13.812;2023-04-01T08:32:48;2.30;;;1.30;;
63312;SDS011;49442;45.640;13.812;2023-04-01T08:37:48;5.20;;;1.10;;
63312;SDS011;49442;45.640;13.812;2023-04-01T08:43:07;6.55;;;1.40;;
63312;SDS011;49442;45.640;13.812;2023-04-01T08:51:13;3.88;;;1.10;;
63312;SDS011;49442;45.640;13.812;2023-04-01T08:56:42;10.52;;;1.60;;
63312;SDS011;49442;45.640;13.812;2023-04-01T09:15:22;1.80;;;1.13;;
63312;SDS011;49442;45.640;13.812;2023-04-01T09:29:24;6.78;;;2.63;;
63312;SDS011;49442;45.640;13.812;2023-04-01T09:37:51;6.28;;;1.77;;
63312;SDS011;49442;45.640;13.812;2023-04-01T09:51:30;8.43;;;2.90;;
63312;SDS011;49442;45.640;13.812;2023-04-01T10:13:30;13.30;;;2.83;;
63312;SDS011;49442;45.640;13.812;2023-04-01T10:27:10;4.75;;;2.38;;
63312;SDS011;49442;45.640;13.812;2023-04-01T10:36:02;6.32;;;3.00;;
63312;SDS011;49442;45.640;13.812;2023-04-01T10:58:41;6.75;;;2.30;;
63312;SDS011;49442;45.640;13.812;2023-04-01T11:10:15;7.43;;;2.80;;
63312;SDS011;49442;45.640;13.812;2023-04-01T11:13:32;7.60;;;2.97;;
63312;SDS011;49442;45.640;13.812;2023-04-01T11:15:59;6.78;;;2.40;;
63312;SDS011;49442;45.640;13.812;2023-04-01T11:19:10;7.45;;;3.53;;
63312;SDS011;49442;45.640;13.812;2023-04-01T11:30:08;11.68;;;4.22;;
63312;SDS011;49442;45.640;13.812;2023-04-01T11:38:15;11.30;;;3.80;;
63312;SDS011;49442;45.640;13.812;2023-04-01T11:48:58;8.52;;;3.88;;
63312;SDS011;49442;45.640;13.812;2023-04-01T11:51:52;18.23;;;4.00;;
63312;SDS011;49442;45.640;13.812;2023-04-01T12:17:25;14.40;;;3.47;;
63312;SDS011;49442;45.640;13.812;2023-04-01T12:28:25;8.90;;;3.47;;
63312;SDS011;49442;45.640;13.812;2023-04-01T12:31:25;10.50;;;2.78;;
63312;SDS011;49442;45.640;13.812;2023-04-01T12:34:24;10.13;;;3.72;;
63312;SDS011;49442;45.640;13.812;2023-04-01T12:40:31;11.43;;;3.33;;
63312;SDS011;49442;45.640;13.812;2023-04-01T12:42:57;11.55;;;3.38;;
63312;SDS011;49442;45.640;13.812;2023-04-01T12:45:35;14.70;;;3.47;;
63312;SDS011;49442;45.640;13.812;2023-04-01T12:48:19;15.65;;;3.63;;
63312;SDS011;49442;45.640;13.812;2023-04-01T13:16:35;14.55;;;3.15;;
63312;SDS011;49442;45.640;13.812;2023-04-01T13:27:35;10.88;;;3.10;;
63312;SDS011;49442;45.640;13.812;2023-04-01T13:43:58;5.60;;;2.28;;
63312;SDS011;49442;45.640;13.812;2023-04-01T13:49:23;6.60;;;2.75;;
63312;SDS011;49442;45.640;13.812;2023-04-01T14:08:33;5.07;;;2.03;;
63312;SDS011;49442;45.640;13.812;2023-04-01T14:34:36;10.23;;;3.72;;
63312;SDS011;49442;45.640;13.812;2023-04-01T14:37:31;7.97;;;3.72;;
63312;SDS011;49442;45.640;13.812;2023-04-01T14:43:56;7.32;;;2.78;;
63312;SDS011;49442;45.640;13.812;2023-04-01T14:46:26;9.05;;;2.70;;
63312;SDS011;49442;45.640;13.812;2023-04-01T14:49:35;7.20;;;2.75;;
63312;SDS011;49442;45.640;13.812;2023-04-01T14:54:51;7.70;;;2.88;;
63312;SDS011;49442;45.640;13.812;2023-04-01T15:00:00;9.32;;;3.30;;
63312;SDS011;49442;45.640;13.812;2023-04-01T15:02:45;9.38;;;3.72;;
63312;SDS011;49442;45.640;13.812;2023-04-01T15:05:32;16.80;;;4.43;;
63312;SDS011;49442;45.640;13.812;2023-04-01T15:11:28;19.73;;;9.65;;
63312;SDS011;49442;45.640;13.812;2023-04-01T15:16:19;12.25;;;4.38;;
63312;SDS011;49442;45.640;13.812;2023-04-01T15:25:05;7.93;;;3.97;;
63312;SDS011;49442;45.640;13.812;2023-04-01T15:28:49;9.77;;;4.20;;
63312;SDS011;49442;45.640;13.812;2023-04-01T15:34:16;11.68;;;3.83;;
63312;SDS011;49442;45.640;13.812;2023-04-01T15:54:01;23.23;;;8.40;;
63312;SDS011;49442;45.640;13.812;2023-04-01T15:57:00;18.88;;;6.10;;
63312;SDS011;49442;45.640;13.812;2023-04-01T15:59:43;15.38;;;8.10;;
63312;SDS011;49442;45.640;13.812;2023-04-01T16:02:22;10.80;;;6.47;;
63312;SDS011;49442;45.640;13.812;2023-04-01T16:05:07;16.55;;;8.50;;
63312;SDS011;49442;45.640;13.812;2023-04-01T16:13:30;13.93;;;7.45;;
63312;SDS011;49442;45.640;13.812;2023-04-01T16:21:43;27.05;;;13.50;;
63312;SDS011;49442;45.640;13.812;2023-04-01T16:24:38;18.50;;;11.88;;
63312;SDS011;49442;45.640;13.812;2023-04-01T16:27:24;21.13;;;11.73;;
63312;SDS011;49442;45.640;13.812;2023-04-01T16:37:55;21.13;;;11.50;;
63312;SDS011;49442;45.640;13.812;2023-04-01T16:43:30;17.60;;;11.80;;
63312;SDS011;49442;45.640;13.812;2023-04-01T16:48:58;27.10;;;14.93;;
63312;SDS011;49442;45.640;13.812;2023-04-01T16:56:44;19.48;;;12.05;;
63312;SDS011;49442;45.640;13.812;2023-04-01T16:59:24;17.35;;;12.30;;
63312;SDS011;49442;45.640;13.812;2023-04-01T17:02:02;22.05;;;11.98;;
63312;SDS011;49442;45.640;13.812;2023-04-01T17:10:10;17.75;;;11.68;;
63312;SDS011;49442;45.640;13.812;2023-04-01T17:12:53;19.50;;;10.95;;
63312;SDS011;49442;45.640;13.812;2023-04-01T17:20:56;20.30;;;11.50;;
63312;SDS011;49442;45.640;13.812;2023-04-01T17:23:31;14.55;;;10.90;;
63312;SDS011;49442;45.640;13.812;2023-04-01T17:32:29;25.13;;;11.95;;
63312;SDS011;49442;45.640;13.812;2023-04-01T17:34:42;16.13;;;10.45;;
63312;SDS011;49442;45.640;13.812;2023-04-01T17:40:13;24.17;;;13.88;;
63312;SDS011;49442;45.640;13.812;2023-04-01T17:42:57;25.70;;;13.82;;
63312;SDS011;49442;45.640;13.812;2023-04-01T18:13:00;26.42;;;15.02;;
63312;SDS011;49442;45.640;13.812;2023-04-01T18:18:47;20.83;;;14.38;;
63312;SDS011;49442;45.640;13.812;2023-04-01T18:23:59;24.02;;;16.15;;
63312;SDS011;49442;45.640;13.812;2023-04-01T18:26:36;28.20;;;18.75;;
63312;SDS011;49442;45.640;13.812;2023-04-01T18:39:50;22.65;;;15.82;;
63312;SDS011;49442;45.640;13.812;2023-04-01T18:50:33;32.03;;;19.20;;
63312;SDS011;49442;45.640;13.812;2023-04-01T18:53:35;20.10;;;15.57;;
63312;SDS011;49442;45.640;13.812;2023-04-01T18:56:22;25.83;;;16.17;;
63312;SDS011;49442;45.640;13.812;2023-04-01T19:10:14;24.95;;;12.52;;
63312;SDS011;49442;45.640;13.812;2023-04-01T19:18:02;16.00;;;9.38;;
63312;SDS011;49442;45.640;13.812;2023-04-01T19:21:14;13.20;;;8.50;;
63312;SDS011;49442;45.640;13.812;2023-04-01T19:26:29;20.27;;;7.93;;
63312;SDS011;49442;45.640;13.812;2023-04-01T19:37:54;18.40;;;6.82;;
63312;SDS011;49442;45.640;13.812;2023-04-01T19:51:16;9.63;;;5.63;;
63312;SDS011;49442;45.640;13.812;2023-04-01T19:54:12;13.23;;;5.05;;
63312;SDS011;49442;45.640;13.812;2023-04-01T20:00:07;11.65;;;4.60;;
63312;SDS011;49442;45.640;13.812;2023-04-01T20:14:32;8.90;;;4.75;;
63312;SDS011;49442;45.640;13.812;2023-04-01T20:17:27;8.68;;;5.63;;
63312;SDS011;49442;45.640;13.812;2023-04-01T20:19:27;7.88;;;4.68;;
63312;SDS011;49442;45.640;13.812;2023-04-01T20:24:47;12.85;;;5.10;;
63312;SDS011;49442;45.640;13.812;2023-04-01T20:27:20;17.95;;;9.15;;
63312;SDS011;49442;45.640;13.812;2023-04-01T20:30:07;24.27;;;11.50;;
63312;SDS011;49442;45.640;13.812;2023-04-01T20:35:40;39.08;;;14.68;;
63312;SDS011;49442;45.640;13.812;2023-04-01T20:47:04;11.85;;;4.90;;
63312;SDS011;49442;45.640;13.812;2023-04-01T20:54:44;10.25;;;5.43;;
63312;SDS011;49442;45.640;13.812;2023-04-01T21:11:56;9.18;;;3.83;;
63312;SDS011;49442;45.640;13.812;2023-04-01T21:14:35;9.40;;;4.43;;
63312;SDS011;49442;45.640;13.812;2023-04-01T21:50:43;9.32;;;3.25;;
63312;SDS011;49442;45.640;13.812;2023-04-01T21:59:15;5.10;;;2.63;;
63312;SDS011;49442;45.640;13.812;2023-04-01T22:07:32;7.68;;;3.55;;
63312;SDS011;49442;45.640;13.812;2023-04-01T22:15:48;9.43;;;4.45;;
63312;SDS011;49442;45.640;13.812;2023-04-01T22:18:18;9.52;;;4.25;;
63312;SDS011;49442;45.640;13.812;2023-04-01T22:24:32;7.95;;;4.07;;
63312;SDS011;49442;45.640;13.812;2023-04-01T22:27:03;10.38;;;4.10;;
63312;SDS011;49442;45.640;13.812;2023-04-01T22:30:34;6.35;;;3.67;;
63312;SDS011;49442;45.640;13.812;2023-04-01T22:32:44;4.82;;;3.50;;
63312;SDS011;49442;45.640;13.812;2023-04-01T22:35:23;7.40;;;3.53;;
63312;SDS011;49442;45.640;13.812;2023-04-01T22:38:00;5.90;;;3.20;;
63312;SDS011;49442;45.640;13.812;2023-04-01T22:40:40;9.18;;;3.47;;
63312;SDS011;49442;45.640;13.812;2023-04-01T22:43:40;9.98;;;3.75;;
63312;SDS011;49442;45.640;13.812;2023-04-01T22:46:26;4.63;;;2.53;;
63312;SDS011;49442;45.640;13.812;2023-04-01T22:57:10;7.95;;;3.00;;
63312;SDS011;49442;45.640;13.812;2023-04-01T23:00:00;5.88;;;2.63;;
63312;SDS011;49442;45.640;13.812;2023-04-01T23:02:38;6.43;;;2.65;;
63312;SDS011;49442;45.640;13.812;2023-04-01T23:05:09;4.35;;;2.55;;
63312;SDS011;49442;45.640;13.812;2023-04-01T23:07:45;12.35;;;2.65;;
63312;SDS011;49442;45.640;13.812;2023-04-01T23:10:26;5.40;;;2.30;;
63312;SDS011;49442;45.640;13.812;2023-04-01T23:13:02;9.18;;;3.33;;
63312;SDS011;49442;45.640;13.812;2023-04-01T23:15:31;5.65;;;2.20;;
63312;SDS011;49442;45.640;13.812;2023-04-01T23:24:25;5.85;;;2.95;;
63312;SDS011;49442;45.640;13.812;2023-04-01T23:26:36;6.50;;;2.63;;
63312;SDS011;49442;45.640;13.812;2023-04-01T23:29:14;7.03;;;2.88;;
63312;SDS011;49442;45.640;13.812;2023-04-01T23:31:45;5.00;;;2.00;;
63312;SDS011;49442;45.640;13.812;2023-04-01T23:36:41;5.40;;;2.55;;
63312;SDS011;49442;45.640;13.812;2023-04-01T23:39:20;4.63;;;2.53;;
63312;SDS011;49442;45.640;13.812;2023-04-01T23:41:53;3.00;;;2.25;;
63312;SDS011;49442;45.640;13.812;2023-04-01T23:44:40;5.25;;;2.92;;
63312;SDS011;49442;45.640;13.812;2023-04-01T23:47:08;9.73;;;2.95;;
63312;SDS011;49442;45.640;13.812;2023-04-01T23:49:44;9.95;;;4.05;;
63312;SDS011;49442;45.640;13.812;2023-04-01T23:52:19;10.73;;;4.15;;
63312;SDS011;49442;45.640;13.812;2023-04-01T23:57:26;8.13;;;3.22;;
